Date,TemperatureHighF,TemperatureAvgF,TemperatureLowF,DewpointHighF,DewpointAvgF,DewpointLowF,HumidityHigh,HumidityAvg,HumidityLow,PressureMaxIn,PressureMinIn,WindSpeedMaxMPH,WindSpeedAvgMPH,GustSpeedMaxMPH,PrecipitationSumIn
2012-1-1,33.6,29.3,21.7,29.6,20.5,8.3,85,70,53,29.89,29.37,11,1,17,0.05
2012-1-2,21.6,17.3,9.9,8.6,1.3,-6.7,59,49,39,30.23,29.88,8,2,14,0.00
2012-1-3,28.2,15.8,0.1,8.5,-2.1,-11.7,64,46,25,30.22,28.04,7,2,13,0.00
2012-1-4,33.8,24.4,17.1,19.3,13.2,7.5,74,62,50,34.33,29.67,6,2,10,0.00
2012-1-5,53.6,33.7,16.2,32.4,21.8,8.5,78,63,40,29.76,29.40,4,1,8,0.02
2012-1-6,54.7,41.2,29.7,34.0,26.0,20.2,78,57,29,29.58,29.40,6,2,12,0.00
2012-1-7,44.4,32.4,19.4,22.9,18.8,12.5,75,58,40,30.03,29.58,8,2,17,0.00
2012-1-8,44.1,26.1,14.4,24.5,15.5,6.7,77,65,42,30.10,29.96,5,1,9,0.00
2012-1-9,50.7,36.2,27.5,26.8,23.3,18.9,76,60,34,29.96,29.64,7,3,13,0.00
2012-1-10,55.0,33.9,20.7,30.8,22.9,14.6,82,66,38,29.78,29.49,8,1,9,0.00
2012-1-11,57.2,36.8,24.3,32.1,24.3,16.6,82,63,31,29.49,29.34,6,2,12,0.00
2012-1-12,27.5,18.1,13.5,16.6,8.3,3.3,71,65,59,29.44,29.31,8,5,15,0.00
2012-1-13,21.4,15.7,12.6,6.5,2.7,0.9,62,56,48,29.80,29.43,8,4,15,0.00
2012-1-14,30.6,15.3,7.3,3.8,-1.6,-8.1,61,48,25,29.96,29.78,4,1,7,0.00
2012-1-15,39.4,25.7,14.9,21.2,13.5,0.9,72,60,43,29.98,29.65,8,4,14,0.01
2012-1-16,49.1,31.7,22.1,28.1,21.0,15.1,77,65,42,29.65,29.47,4,1,6,0.01
2012-1-17,31.5,21.5,5.9,23.0,9.5,-9.7,74,60,44,30.01,29.53,8,4,14,0.00
2012-1-18,22.1,9.9,-8.1,13.7,-6.0,-21.6,72,49,29,30.01,29.47,8,3,11,0.00
2012-1-19,22.6,-0.1,-22.4,14.0,-22.8,-61.1,71,33,10,29.98,29.47,10,4,16,0.00
2012-1-20,6.6,-3.5,-33.0,-8.0,-19.2,-55.4,52,46,40,30.00,29.93,3,1,24,0.00
2012-1-21,24.8,3.2,-14.4,-4.6,-15.2,-29.0,56,42,22,30.05,29.81,4,1,25,0.00
2012-1-22,31.5,23.1,4.6,27.5,15.3,-7.9,85,72,54,29.81,29.23,8,3,8,0.00
2012-1-23,32.2,29.0,24.3,27.9,22.5,-18.3,85,77,10,29.64,29.10,2,0,2,0.00
2012-1-24,37.8,24.3,16.2,19.4,13.7,-20.0,72,64,41,30.10,29.64,4,0,7,0.01
2012-1-25,34.7,25.8,17.2,20.2,15.5,9.2,75,65,52,30.14,29.76,7,1,11,0.00
2012-1-26,34.3,29.5,18.7,27.9,23.5,10.3,84,78,69,29.77,29.45,5,2,8,0.01
2012-2-2,32.2,31.8,31.3,25.5,25.4,25.1,78,77,76,30.18,30.13,2,1,4,0.00
2012-2-3,34.5,31.8,29.5,26.0,24.8,22.7,79,75,69,30.26,30.16,3,1,5,0.00
2012-2-4,53.6,32.0,17.8,28.7,20.1,10.3,80,63,29,30.18,30.00,4,1,7,0.00
2012-2-5,43.9,28.0,18.3,28.5,19.6,10.6,78,71,50,30.13,29.98,4,1,8,0.00
2012-2-6,44.6,32.8,27.3,26.5,22.2,18.9,78,66,47,29.99,29.85,5,2,9,0.00
2012-2-7,31.8,28.3,17.1,24.0,16.6,7.2,76,61,46,30.23,29.99,6,2,10,0.00
2012-2-8,43.0,21.9,8.2,8.7,2.6,-4.2,71,47,19,30.22,30.03,6,1,11,0.00
2012-2-9,43.7,25.3,12.0,19.3,9.5,1.5,66,52,24,30.04,29.74,8,2,12,0.00
2012-2-10,31.1,20.7,7.2,23.2,6.5,-12.3,72,55,32,30.11,29.65,9,4,14,0.00
2012-2-11,25.2,12.4,3.0,-9.4,-15.9,-21.6,39,26,20,30.18,30.10,10,5,16,0.00
2012-2-12,41.4,20.5,10.8,4.9,-5.1,-13.7,55,33,18,30.11,29.91,6,2,11,0.00
2012-2-13,32.7,22.0,5.5,22.7,10.5,-6.6,78,62,38,29.91,29.55,6,2,11,0.00
2012-2-14,37.2,31.5,27.3,26.3,22.8,20.8,82,70,58,29.70,29.52,5,1,8,0.07
2012-2-15,54.9,36.0,27.5,32.9,26.1,20.5,81,68,41,29.79,29.69,6,2,7,0.01
2012-2-16,51.8,35.6,27.0,28.1,19.7,13.2,83,56,26,29.89,29.76,8,2,14,0.00
2012-2-17,47.7,32.4,21.2,28.1,21.1,13.6,75,63,45,29.90,29.73,8,2,11,0.00
2012-2-18,47.1,30.5,17.1,23.2,13.4,5.9,69,51,21,30.03,29.83,5,2,10,0.00
2012-2-19,50.9,27.1,10.8,22.4,10.3,2.2,72,53,21,29.98,29.90,5,1,8,0.00
2012-2-20,18.5,16.2,14.0,8.9,7.7,6.1,71,69,64,30.00,29.94,0,0,1,0.00
2012-2-28,36.1,33.4,32.2,28.2,24.8,18.5,82,71,49,29.97,29.55,4,1,7,0.21
2012-2-29,43.7,35.1,31.1,40.1,29.7,26.3,91,81,69,29.56,29.13,7,3,16,0.53
2012-3-1,37.8,33.6,30.2,28.8,25.7,24.0,80,73,62,29.61,29.38,5,1,8,0.04
2012-3-2,32.5,30.4,28.4,27.7,24.9,21.7,84,80,75,29.59,29.32,0,0,0,0.04
2012-3-3,35.6,28.6,25.0,21.8,18.0,15.3,76,64,48,29.59,29.31,4,0,8,0.01
2012-3-4,32.5,25.4,18.9,17.4,15.1,9.1,72,65,51,29.83,29.57,8,1,100,0.07
2012-3-5,41.7,26.3,8.2,20.6,12.0,-0.4,73,57,26,30.04,29.83,8,3,9,0.19
2012-3-6,63.7,47.2,26.4,42.4,30.2,-18.9,72,53,38,29.85,29.49,13,4,15,0.01
2012-3-7,61.9,54.9,37.9,50.0,41.2,31.1,83,61,40,29.62,29.43,10,6,15,0.13
2012-3-8,44.4,35.9,29.8,31.4,18.7,-0.4,78,51,25,29.98,29.61,12,5,15,0.00
2012-3-9,39.9,28.2,19.8,8.8,2.0,-5.0,51,33,19,30.33,29.98,9,3,14,0.00
2012-3-10,66.7,47.2,28.2,31.6,20.8,4.7,48,36,20,30.17,29.81,12,5,17,0.00
2012-3-11,72.0,53.9,34.0,41.7,28.6,20.1,79,43,15,29.95,29.70,7,3,10,0.00
2012-3-12,61.9,52.8,48.0,50.7,46.8,41.9,99,82,55,29.72,29.47,8,4,14,0.32
2012-3-13,73.2,51.0,34.0,45.9,33.7,20.8,96,61,15,29.88,29.62,5,2,8,0.00
2012-3-14,80.8,59.4,36.1,59.6,48.5,31.4,96,70,45,29.79,29.60,11,3,13,0.00
2012-3-15,84.0,60.2,44.6,61.0,51.4,43.8,98,76,38,29.82,29.69,4,1,6,0.00
2012-3-16,83.8,59.2,38.3,60.5,49.8,18.2,99,75,42,29.84,29.72,7,2,8,0.00
2012-3-17,85.1,70.2,60.4,61.3,57.2,53.4,85,66,38,29.78,29.68,10,4,16,0.00
2012-3-18,84.9,68.5,50.7,59.8,55.4,48.8,94,66,41,29.77,29.66,10,3,15,0.00
2012-3-19,75.9,64.9,53.4,63.7,58.5,50.6,96,81,61,29.77,29.62,9,3,11,0.30
2012-3-20,83.5,69.9,54.1,72.2,53.4,44.8,92,59,28,29.79,29.63,10,4,14,0.00
2012-3-21,86.7,69.0,53.6,58.1,53.5,48.4,85,61,34,29.89,29.78,8,2,11,0.00
2012-3-22,79.7,64.1,56.3,63.8,57.3,52.0,98,81,48,29.90,29.83,6,1,8,0.11
2012-3-23,63.7,59.1,56.3,61.0,58.0,56.0,99,96,83,29.85,29.64,3,1,6,0.24
2012-3-24,62.2,56.4,52.3,56.9,54.5,51.8,99,94,81,29.79,29.64,4,1,7,0.04
2012-3-25,72.5,54.2,42.4,54.4,45.3,29.8,99,77,28,30.04,29.78,5,2,8,0.00
2012-3-26,45.5,39.7,32.7,38.4,28.3,23.4,82,64,46,30.22,29.96,8,4,11,0.04
2012-3-27,74.3,56.0,38.8,58.2,39.2,27.3,70,54,30,29.99,29.43,12,6,17,0.00
2012-3-28,64.4,52.4,35.2,43.5,36.8,31.3,87,57,34,29.87,29.55,10,4,16,0.00
2012-3-29,60.4,41.6,27.3,37.4,32.0,25.1,96,72,39,29.97,29.06,7,3,11,0.00
2012-3-30,42.6,38.4,34.5,41.1,36.8,29.5,99,94,77,29.76,29.60,6,2,9,0.69
2012-3-31,43.7,39.6,35.8,40.2,37.7,34.5,99,93,84,29.80,29.59,8,2,8,0.01
2012-4-1,63.0,46.8,32.7,46.7,40.5,31.7,99,81,54,29.62,29.54,6,2,6,0.00
2012-4-2,68.7,57.6,42.3,43.1,38.4,32.5,84,51,32,29.74,29.63,9,4,14,0.00
2012-4-3,65.7,52.2,37.6,47.7,41.5,36.4,96,68,48,29.83,29.62,14,2,100,0.00
2012-4-4,71.6,48.2,28.4,41.7,29.6,18.8,99,59,15,29.87,29.74,6,2,11,0.00
2012-4-5,60.1,43.8,29.5,31.2,27.0,22.0,81,54,26,30.03,29.84,6,2,11,0.00
2012-4-6,63.9,42.7,23.5,34.4,26.1,19.5,87,57,23,30.14,29.99,6,2,9,0.00
2012-4-7,67.1,47.0,28.2,48.4,35.1,23.7,99,69,32,30.04,29.85,8,2,14,0.06
2012-4-8,66.6,46.9,31.5,42.0,30.3,18.5,99,61,18,30.06,29.83,9,2,15,0.01
2012-4-9,60.3,44.5,30.7,30.2,21.8,13.1,82,46,19,29.89,29.77,11,4,17,0.00
2012-4-10,47.5,36.1,27.3,17.9,14.5,9.9,63,42,23,30.00,29.88,10,4,14,0.00
2012-4-11,61.7,41.7,27.1,30.6,22.2,-20.0,82,49,23,30.11,30.00,8,2,10,0.00
2012-4-12,69.6,45.9,24.4,35.8,24.8,19.2,90,53,16,30.04,29.90,6,2,11,0.00
2012-4-13,62.8,48.9,31.3,44.5,33.2,27.1,85,58,28,29.95,29.71,11,4,16,0.00
2012-4-14,81.7,62.0,49.1,57.8,47.2,34.6,99,65,19,29.74,29.56,8,3,13,0.11
2012-4-15,77.4,66.5,58.5,66.5,60.7,56.9,99,83,54,29.57,29.18,12,5,18,0.77
2012-4-16,66.6,49.7,34.2,56.9,39.9,29.4,85,69,54,30.00,29.13,11,5,18,0.01
2012-4-17,63.0,45.2,26.1,39.6,30.8,23.7,95,63,28,30.16,30.00,6,2,8,0.02
2012-4-18,75.7,57.2,44.8,51.6,43.0,37.9,89,61,36,30.00,29.69,8,4,15,0.00
2012-4-19,53.8,44.3,37.0,44.2,39.6,34.1,98,85,50,29.86,29.63,7,3,9,0.65
2012-4-20,57.6,42.3,32.5,39.7,34.6,28.6,98,78,39,29.87,29.63,12,4,12,0.70
2012-4-21,62.4,45.3,27.9,36.6,28.2,19.3,96,58,20,29.91,29.78,5,2,8,0.00
2012-4-22,62.8,47.2,36.0,32.1,26.1,17.6,77,48,19,29.97,29.83,6,2,11,0.00
2012-4-23,64.4,46.5,28.9,38.7,30.3,23.2,95,60,23,29.94,29.66,8,2,12,0.00
2012-4-24,74.7,52.0,32.7,41.1,32.4,20.4,87,56,18,29.67,29.44,5,1,8,0.00
2012-4-25,63.0,50.3,43.5,52.5,44.1,33.6,97,80,53,29.54,29.47,4,2,8,0.19
2012-4-26,62.6,48.1,29.8,46.0,32.6,17.6,99,63,21,29.98,29.52,10,3,14,0.00
2012-4-27,63.1,44.1,24.3,33.9,22.6,13.6,91,49,20,30.07,29.91,7,3,11,0.00
2012-4-28,45.0,42.4,40.5,41.8,34.1,12.9,96,76,28,30.06,29.86,5,2,13,0.14
2012-4-29,58.6,45.5,29.8,41.6,32.9,19.4,99,68,25,30.08,29.86,6,2,11,0.47
2012-4-30,56.1,48.1,40.5,48.1,44.8,39.8,99,89,73,29.87,26.72,3,1,7,0.02
2012-5-1,69.6,54.5,36.1,56.4,47.2,35.4,99,79,50,29.77,29.58,8,3,11,0.00
2012-5-2,88.3,70.7,57.6,65.9,60.5,56.4,99,74,40,29.65,29.41,5,2,8,0.64
2012-5-3,87.3,75.4,62.1,71.7,65.4,61.0,97,73,45,29.69,29.62,5,1,8,0.91
2012-5-4,63.0,59.6,53.1,61.0,55.2,47.1,99,86,69,29.88,29.67,4,2,8,0.12
2012-5-5,66.9,56.4,49.6,57.1,52.8,49.1,98,88,69,29.94,29.78,4,2,6,0.07
2012-5-6,53.8,52.8,50.9,52.5,51.6,49.8,99,95,90,29.83,29.74,4,2,8,0.39
2012-5-9,70.7,57.8,40.8,45.0,39.2,29.7,97,55,23,29.79,29.73,6,2,10,0.00
2012-5-10,78.8,56.2,32.2,51.3,34.5,20.1,99,56,15,29.83,29.75,5,1,8,0.00
2012-5-11,84.7,63.6,41.5,59.5,48.5,36.6,93,61,39,29.95,29.76,8,3,12,0.00
2012-5-12,78.4,60.7,41.5,51.6,41.7,29.0,91,56,20,30.11,29.95,5,2,8,0.00
2012-5-13,83.5,57.9,34.2,49.7,36.3,25.6,99,57,13,30.10,29.91,10,1,98,0.00
2012-5-14,88.5,63.1,38.7,49.7,42.4,36.8,99,58,19,29.91,29.73,6,1,7,0.26
2012-5-15,88.0,69.0,51.1,54.4,47.1,32.9,84,50,20,29.83,29.62,10,2,99,0.00
2012-5-16,77.9,57.6,38.7,48.3,39.3,-5.2,99,60,20,29.96,29.82,5,1,8,0.00
2012-5-17,77.9,59.0,38.8,45.8,40.8,37.0,99,59,26,29.97,29.78,6,2,8,0.00
2012-5-18,91.8,68.4,46.6,54.5,45.6,2.8,82,50,10,29.80,29.71,6,2,8,0.00
2012-5-19,94.3,70.6,54.1,60.6,53.7,48.1,83,61,30,29.80,29.70,8,2,11,0.00
2012-5-20,88.9,72.1,54.0,64.1,58.3,47.4,83,64,37,29.92,29.69,7,3,10,0.00
2012-5-21,81.3,61.0,44.4,47.9,42.9,28.0,94,59,16,30.03,29.92,6,2,8,0.24
2012-5-22,82.8,59.8,37.9,49.5,42.5,37.2,99,62,21,29.94,29.69,4,1,4,0.24
2012-5-23,85.5,66.7,48.7,51.8,44.6,36.8,89,50,22,29.70,29.44,10,2,10,0.00
2012-5-24,91.8,75.0,57.0,65.2,54.5,44.6,74,52,29,29.48,29.21,12,4,13,0.01
2012-5-25,74.8,59.9,57.4,65.2,10.5,1.3,72,19,10,29.96,29.47,5,1,5,0.01
2012-5-26,57.4,28.3,0.0,1.3,1.3,1.3,10,5,10,29.99,29.80,0,0,0,0.01
2012-5-27,0.0,0.0,0.0,1.3,1.3,1.3,0,0,100,29.82,29.54,0,0,0,0.01
2012-5-28,0.0,0.0,0.0,1.3,1.3,1.3,0,0,100,29.60,29.45,0,0,0,0.01
2012-5-29,0.0,0.0,0.0,1.3,1.3,1.3,0,0,100,29.69,29.59,0,0,0,0.01
2012-5-30,0.0,0.0,0.0,1.3,1.3,1.3,0,0,100,29.80,29.67,0,0,0,0.01
2012-5-31,0.0,0.0,0.0,1.3,1.3,1.3,0,0,100,29.87,29.78,0,0,0,0.01
2012-6-1,67.1,12.1,0.0,47.3,11.2,1.3,91,17,37,29.78,29.55,2,0,3,0.01
2012-6-2,82.0,63.0,48.6,50.5,45.0,38.8,91,58,24,29.59,29.51,6,2,8,0.00
2012-6-3,88.0,67.1,46.9,58.8,51.9,44.8,94,63,24,29.68,29.58,5,1,10,0.00
2012-6-4,90.0,69.9,55.4,62.2,56.1,51.4,97,66,28,29.78,29.65,3,1,4,0.00
2012-6-5,77.4,60.1,48.2,58.3,53.7,47.9,99,82,45,29.89,29.77,3,0,4,0.00
2012-6-6,84.7,63.5,41.7,58.5,48.9,41.5,99,68,27,29.95,29.86,4,1,4,0.00
2012-6-7,87.3,65.8,-20.6,62.3,52.5,-28.7,99,69,30,29.97,29.85,5,1,5,0.00
2012-6-8,91.8,73.5,53.8,62.6,58.6,0.7,98,63,36,29.87,29.67,5,1,6,0.00
2012-6-9,79.9,32.6,0.0,60.2,56.8,56.4,77,33,51,29.71,29.60,2,1,2,0.00
2012-6-10,0.0,0.0,0.0,56.4,56.4,56.4,0,0,100,29.72,29.60,0,0,0,0.00
2012-6-11,0.0,0.0,0.0,56.4,56.4,56.4,0,0,100,29.73,29.57,0,0,0,0.00
2012-6-12,75.2,37.1,0.0,56.4,50.5,44.6,53,21,35,29.97,29.72,9,3,9,0.00
2012-6-13,74.3,71.2,63.7,51.0,47.7,44.6,60,43,39,30.01,29.86,4,3,4,0.00
2012-6-14,84.2,64.1,0.0,57.9,50.5,49.6,60,54,39,29.92,29.76,6,2,6,0.00
2012-6-15,0.0,0.0,0.0,54.4,54.4,54.4,0,0,100,29.84,29.78,0,0,0,0.00
2012-6-16,80.8,20.0,0.0,69.4,57.9,54.4,93,22,65,29.83,29.62,4,0,5,0.00
2012-6-17,90.9,72.4,55.6,67.2,59.3,46.9,99,70,24,29.73,29.51,4,1,5,0.00
2012-6-18,95.0,82.4,68.5,73.3,68.9,57.0,89,65,46,29.54,29.36,7,3,11,0.00
2012-6-19,98.6,85.5,76.3,71.6,68.3,63.7,81,59,36,29.68,29.54,9,3,14,0.00
2012-6-20,97.5,84.4,68.9,70.1,68.3,65.4,95,60,39,29.72,29.57,9,4,17,0.00
2012-6-21,86.4,70.7,56.1,67.6,60.6,55.0,98,74,39,29.83,29.66,5,2,10,0.00
2012-6-22,89.4,69.1,51.8,63.9,55.7,51.3,99,68,31,29.84,29.78,6,1,8,0.00
2012-6-23,84.7,67.7,50.4,67.8,59.7,50.1,99,78,45,29.87,29.78,2,0,3,0.00
2012-6-24,93.9,73.8,56.3,68.1,63.4,2.0,99,73,41,29.89,29.78,4,1,6,0.00
2012-6-25,84.9,68.0,52.2,64.1,50.0,38.3,93,58,26,30.00,29.88,4,2,8,0.27
2012-6-26,89.1,66.6,43.9,58.8,50.4,43.4,99,63,24,29.93,29.72,5,1,7,0.00
2012-6-27,99.1,77.2,54.0,70.7,60.1,52.0,94,61,30,29.72,29.52,6,2,9,0.00
2012-6-28,99.0,81.7,61.2,77.0,67.7,55.0,90,65,32,29.72,29.53,5,1,8,0.00
2012-6-29,99.7,76.7,54.7,67.8,57.8,44.4,98,61,17,29.75,29.61,5,1,7,0.00
2012-6-30,99.5,78.0,61.5,68.0,61.8,56.3,96,64,27,29.71,29.61,13,1,47,0.00
2012-7-1,102.6,78.2,57.6,68.2,61.0,56.6,97,63,27,29.82,29.70,4,1,5,0.00
2012-7-5,0.0,0.0,0.0,71.7,71.7,71.7,0,0,100,29.78,29.70,0,0,0,0.00
2012-7-6,79.7,9.4,0.0,71.7,71.4,68.7,81,9,72,29.82,29.72,2,0,2,0.00
2012-7-7,90.0,78.8,64.6,71.8,67.1,17.7,89,69,45,29.92,29.73,4,1,9,0.00
2012-7-8,97.3,75.4,57.2,66.9,59.2,52.8,98,64,27,29.98,29.85,4,1,8,0.00
2012-7-9,97.3,76.8,58.8,68.1,58.1,50.3,96,59,23,29.93,29.85,4,1,7,0.00
2012-7-10,90.3,73.3,57.6,64.0,57.8,50.9,95,63,29,30.00,29.91,4,1,6,0.00
2012-7-11,63.7,59.5,55.9,56.5,54.5,53.1,90,84,78,29.98,29.96,1,0,2,0.00
2012-7-12,98.4,75.8,54.3,61.6,54.7,46.9,95,57,19,29.93,29.83,4,1,4,0.00
2012-7-13,94.8,75.2,57.9,65.3,62.3,55.6,92,67,38,29.88,29.79,4,1,4,0.00
2012-7-14,94.1,76.8,66.6,74.4,67.6,63.3,96,76,42,29.88,29.77,5,1,8,0.00
2012-7-15,101.1,80.9,64.2,73.7,66.8,55.6,99,68,24,29.88,29.79,4,1,7,0.00
2012-7-16,104.7,84.4,64.9,71.1,65.5,60.0,96,59,28,29.82,29.61,6,2,11,0.00
2012-7-17,107.1,86.9,72.3,71.6,68.8,64.6,85,59,29,29.72,29.59,5,2,10,0.00
2012-7-18,97.3,78.5,68.9,71.5,68.8,65.5,96,75,43,29.80,29.66,5,2,11,0.00
2012-7-19,77.7,69.3,59.7,69.8,65.6,57.7,98,88,70,29.91,29.71,4,1,6,0.00
2012-7-20,92.8,70.8,52.7,65.8,58.4,52.2,99,71,31,29.99,29.86,3,1,7,0.00
2012-7-21,93.0,73.0,59.7,70.9,65.3,58.6,97,79,43,29.93,29.82,4,1,7,0.00
2012-7-22,96.4,77.7,67.3,72.2,68.4,64.7,97,75,42,29.89,29.73,4,1,7,0.00
2012-7-23,107.6,84.8,70.2,76.7,71.2,65.4,91,68,28,29.76,29.70,5,1,9,0.00
2012-7-24,81.9,73.8,70.0,74.0,69.9,65.3,97,88,71,29.87,29.73,3,1,4,0.00
2012-7-25,101.3,81.2,64.2,77.1,69.5,61.2,92,71,41,29.75,29.38,5,2,9,0.00
2012-7-26,95.5,80.1,69.8,75.5,65.2,53.3,95,65,28,29.61,29.44,7,2,14,0.00
2012-7-27,86.7,71.0,60.8,66.3,61.7,58.3,94,74,44,29.88,29.60,4,1,11,0.00
2012-7-28,94.6,71.9,54.1,64.9,59.2,53.3,98,70,31,29.98,29.87,4,1,8,0.00
2012-7-29,88.2,71.9,60.6,67.8,63.7,58.5,95,77,45,29.91,29.80,4,1,7,0.00
2012-7-30,99.0,78.2,58.5,71.4,65.8,57.8,98,70,38,29.80,29.65,6,2,8,0.00
2012-7-31,96.8,77.4,61.9,69.0,61.7,56.0,95,63,30,29.80,29.70,4,1,6,0.00
2012-8-1,100.0,76.8,55.6,71.4,61.4,54.2,96,65,29,29.80,29.64,4,1,8,0.00
2012-8-2,89.1,74.5,66.7,75.0,69.1,64.8,96,84,60,29.74,29.64,3,0,7,0.00
2012-8-3,97.3,78.5,62.8,74.5,67.8,61.9,98,73,40,29.75,29.67,4,1,6,0.00
2012-8-4,89.8,73.3,62.8,70.9,66.6,61.6,97,81,47,29.79,29.63,6,1,10,0.00
2012-8-5,85.8,67.9,53.6,61.6,55.2,45.6,99,70,29,29.98,29.73,5,2,9,0.00
2012-8-6,90.0,67.5,45.9,62.2,53.4,45.1,99,67,29,29.99,29.78,4,1,8,0.00
2012-8-7,99.0,76.1,59.0,67.0,59.0,51.9,93,62,27,29.81,29.72,5,1,8,0.00
2012-8-8,81.0,67.4,53.8,67.8,60.5,52.1,96,79,58,29.86,29.78,3,1,4,0.00
2012-8-9,69.6,62.9,54.7,65.3,59.8,53.9,98,90,82,29.82,29.74,3,1,7,0.00
2012-8-10,81.3,65.0,51.8,64.3,54.2,48.1,99,73,35,29.87,29.78,5,1,8,0.00
2012-8-11,86.7,63.2,47.5,56.0,50.4,43.9,99,70,27,29.88,29.79,4,1,8,0.00
2012-8-12,81.5,63.8,50.2,61.3,55.1,49.1,98,77,39,29.83,29.77,4,1,5,0.00
2012-8-13,87.6,67.4,57.0,65.2,59.5,53.1,97,80,32,29.83,29.73,3,1,7,0.00
2012-8-14,87.3,68.8,54.0,65.8,57.6,53.1,97,72,35,29.79,29.70,3,1,7,0.00
2012-8-15,87.3,71.3,59.7,69.4,59.4,53.1,95,70,36,29.75,29.63,4,1,7,0.00
2012-8-16,78.3,67.5,57.0,66.3,59.8,52.9,97,78,46,29.80,29.52,7,2,14,0.00
2012-8-17,80.8,61.4,47.8,53.5,48.7,41.7,98,69,25,29.86,29.78,4,1,8,0.00
2012-8-18,83.7,59.9,41.2,58.0,47.9,40.9,99,72,27,29.85,29.75,4,1,6,0.00
2012-8-19,85.3,63.0,48.9,59.3,53.2,47.7,97,75,34,29.82,29.72,3,1,8,0.00
2012-8-20,84.9,61.1,44.8,59.1,47.0,35.9,99,68,20,29.84,29.78,3,1,7,0.00
2012-8-21,89.4,62.3,41.9,62.6,48.4,41.6,99,68,25,29.91,29.83,4,1,5,0.00
2012-8-22,92.5,67.3,46.0,61.6,53.2,45.2,97,68,26,29.91,29.80,4,1,8,0.00
2012-8-23,96.6,76.2,63.7,65.2,61.0,57.5,88,63,31,29.84,29.74,4,1,5,0.00
2012-8-24,96.3,75.4,62.4,67.0,60.7,55.6,92,64,32,29.84,29.73,4,1,7,0.00
2012-8-25,95.4,74.3,55.9,65.5,59.8,54.1,95,66,30,29.82,29.77,5,1,7,0.00
2012-8-26,80.8,70.1,63.5,72.2,67.2,61.9,96,91,73,29.85,29.78,2,0,3,0.00
2012-8-27,93.6,70.6,55.0,71.6,59.2,53.2,99,74,29,29.93,29.83,4,1,8,0.00
2012-8-28,88.3,68.0,51.6,68.0,59.4,51.3,99,78,36,29.99,29.85,3,0,4,0.00
2012-8-29,93.0,74.4,60.1,68.1,62.8,59.0,97,71,41,29.89,29.75,4,1,7,0.00
2012-8-30,95.5,78.4,65.8,67.2,64.8,62.8,93,66,37,29.78,29.66,6,2,11,0.00
2012-8-31,96.6,77.6,66.7,67.9,64.4,61.8,88,67,36,29.93,29.73,3,1,4,0.00
2012-9-1,88.2,72.6,60.3,62.1,56.0,51.9,85,59,30,29.96,29.85,6,2,9,0.00
2012-9-2,88.7,72.0,56.5,67.1,61.8,53.5,93,73,47,29.86,29.73,5,1,11,0.00
2012-9-3,91.2,70.9,59.7,72.1,65.1,58.3,96,84,49,29.78,29.66,3,0,4,0.00
2012-9-4,97.3,73.9,59.2,78.2,64.7,58.0,98,77,33,29.74,29.58,5,1,7,0.00
2012-9-5,88.7,70.2,59.5,68.8,60.6,57.3,95,75,38,29.74,29.58,6,1,8,0.00
2012-9-6,90.0,66.5,52.0,61.7,53.6,44.8,98,70,23,29.80,29.67,4,1,7,0.00
2012-9-7,66.4,60.0,51.1,58.6,54.1,46.6,95,81,67,29.75,29.67,4,1,8,0.00
2012-9-8,77.7,58.3,47.3,53.9,49.3,45.8,97,76,37,29.77,29.55,5,1,9,0.00
2012-9-9,78.6,57.7,46.4,58.6,50.5,45.3,99,81,37,29.97,29.74,4,1,9,0.00
2012-9-10,84.2,60.2,41.5,56.4,48.8,41.3,99,72,33,30.00,29.82,4,1,8,0.00
2012-9-11,91.2,71.7,56.7,58.4,54.7,50.6,83,58,31,29.84,29.73,7,3,12,0.00
2012-9-12,90.0,70.9,56.5,61.8,52.5,37.1,79,55,29,30.04,29.79,4,2,9,0.00
2012-9-13,65.8,55.7,47.5,55.5,49.6,44.4,95,81,57,30.15,30.04,3,1,6,0.00
2012-9-14,84.2,58.2,41.4,57.2,44.2,17.0,99,68,19,30.14,30.07,4,1,7,0.00
2012-9-15,87.3,57.2,36.1,54.4,43.7,34.6,99,69,24,30.11,29.89,5,1,8,0.00
2012-9-16,84.2,62.3,47.8,53.3,47.7,44.1,91,63,28,29.90,29.72,6,1,8,0.00
2012-9-17,71.6,58.3,46.4,56.6,51.3,45.9,98,79,49,29.72,29.65,4,1,8,0.00
2012-9-18,64.2,46.5,31.1,49.1,38.1,28.8,99,77,33,29.82,29.71,5,1,8,0.00
2012-9-19,80.1,53.2,29.3,55.9,41.5,27.5,99,71,30,29.81,29.44,9,2,14,0.00
2012-9-20,69.6,52.0,39.9,50.6,42.1,35.7,99,74,36,29.72,29.63,5,1,11,0.00
2012-9-21,66.0,51.5,38.7,48.3,43.2,36.8,97,75,52,29.70,29.57,4,1,8,0.00
2012-9-22,62.2,45.5,35.8,45.7,38.6,32.9,97,79,46,29.98,29.54,6,2,11,0.00
2012-9-23,67.1,50.2,32.7,38.9,32.7,29.1,88,55,28,30.07,30.00,6,2,12,0.00
2012-9-24,77.4,52.6,31.6,44.9,36.2,28.9,96,61,23,30.00,29.59,6,2,11,0.00
2012-9-25,86.4,60.9,43.7,49.4,43.5,39.4,91,58,25,29.75,29.57,4,1,8,0.00
2012-9-26,75.0,49.4,33.6,46.4,37.1,31.1,99,70,23,30.01,29.74,4,1,6,0.00
2012-9-27,73.8,46.8,28.6,49.1,36.1,26.8,97,72,29,30.10,29.98,4,1,6,0.00
2012-9-28,81.1,51.0,30.6,50.4,37.3,29.1,98,68,19,30.04,29.91,4,1,7,0.00
2012-9-29,87.4,55.5,36.3,53.7,40.1,34.2,98,65,21,29.92,29.79,3,1,6,0.00
2012-9-30,78.1,51.4,34.9,51.2,40.8,33.3,99,73,26,29.85,29.74,3,1,6,0.00
2012-10-1,73.2,52.2,35.8,48.7,42.3,34.0,99,74,35,29.75,29.63,3,1,4,0.00
2012-10-2,82.2,55.6,41.7,54.0,47.0,41.5,99,77,34,29.76,29.65,4,1,6,0.00
2012-10-3,82.8,55.5,39.0,58.1,45.8,38.8,99,76,31,29.80,29.72,3,1,6,0.00
2012-10-4,70.3,54.4,41.2,52.3,42.1,30.9,98,67,34,29.91,29.70,5,2,10,0.00
2012-10-5,54.5,43.5,33.3,33.2,28.0,21.8,81,57,30,29.92,29.81,6,2,11,0.00
2012-10-6,48.4,41.6,37.2,29.9,27.0,24.9,65,56,45,30.01,29.95,5,2,8,0.00
2012-10-7,61.0,41.9,27.9,30.1,21.1,13.4,73,49,19,30.00,29.84,5,1,9,0.00
2012-10-8,64.8,49.5,27.9,35.5,28.5,18.2,73,46,30,29.85,29.60,11,5,15,0.00
2012-10-9,55.0,47.4,36.0,46.8,38.7,32.6,96,74,43,29.69,29.56,7,2,12,0.00
2012-10-10,56.8,40.5,30.6,34.0,28.3,20.0,94,66,26,29.89,29.68,7,2,11,0.00
2012-10-11,58.6,47.7,32.0,36.2,30.0,20.3,68,50,38,30.13,29.71,7,3,10,0.00
2012-10-12,59.2,37.1,21.4,32.0,20.8,13.1,87,58,21,30.26,29.98,6,1,9,0.00
2012-10-13,61.2,50.1,38.3,60.3,48.5,30.2,99,94,69,29.99,29.49,4,1,8,0.00
2012-10-14,62.6,51.2,43.0,61.8,50.2,39.3,99,96,83,29.60,29.34,6,2,10,0.00
2012-10-15,66.2,46.7,33.8,43.4,37.6,31.5,98,75,35,29.75,29.59,5,1,8,0.00
2012-10-16,74.3,56.4,33.6,50.5,44.9,31.7,99,69,38,29.70,29.25,9,2,14,0.00
2012-10-17,69.8,55.3,43.0,55.8,49.8,41.6,97,83,50,29.24,29.06,7,2,11,0.00
2012-10-18,50.5,45.3,42.3,49.3,42.8,39.5,97,91,81,29.21,29.03,4,1,7,0.18
2012-10-19,53.4,45.2,42.1,46.2,42.6,41.0,99,91,71,29.47,29.20,4,0,7,0.00
2012-10-21,71.6,58.6,47.7,48.5,46.0,43.9,91,65,42,29.78,29.70,6,2,10,0.00
2012-10-22,63.9,55.1,43.2,56.7,50.5,42.1,97,85,71,29.76,29.67,3,1,5,0.00
2012-10-23,63.9,55.6,52.9,60.6,53.5,50.8,95,93,89,29.73,29.61,3,2,5,0.00
2012-10-24,76.3,66.5,54.7,66.3,61.9,53.9,98,86,71,29.68,29.51,5,2,8,0.00
2012-10-25,70.7,56.3,36.3,63.9,50.5,28.8,92,81,72,29.89,29.34,10,5,14,0.00
2012-10-26,52.0,38.1,28.4,30.9,26.1,22.6,85,64,37,30.14,29.89,7,2,12,0.00
2012-10-27,52.0,34.0,23.5,31.9,19.5,9.2,89,61,21,30.16,30.07,6,1,10,0.00
2012-10-28,55.9,33.6,19.8,33.8,19.1,14.8,87,61,22,30.16,30.08,5,1,8,0.00
2012-10-29,60.1,33.8,17.6,35.1,19.3,12.3,86,62,20,30.16,29.97,9,1,100,0.00
2012-10-30,50.7,37.3,26.6,30.8,22.3,14.9,80,58,25,29.98,29.70,11,4,17,0.00
2012-10-31,54.0,35.1,26.8,27.5,18.9,7.1,75,55,21,29.71,29.64,7,3,11,0.00
2012-11-1,57.4,38.2,25.2,32.3,24.2,15.1,79,59,30,29.77,29.63,7,2,11,0.00
2012-11-2,52.0,36.7,26.4,27.0,22.4,18.5,84,59,31,29.95,29.76,4,1,8,0.00
2012-11-3,53.2,35.8,26.2,31.4,25.7,19.4,82,68,40,30.04,29.94,3,1,6,0.00
2012-11-4,55.4,35.1,23.0,31.1,25.1,-20.0,86,69,37,30.03,29.95,4,1,5,0.00
2012-11-5,52.3,29.2,19.0,34.9,20.9,13.5,87,73,41,30.01,29.85,6,1,7,0.00
2012-11-6,35.4,33.1,21.7,33.3,30.0,-16.0,92,88,77,29.87,29.60,3,1,7,0.00
2012-11-7,38.7,36.1,34.3,36.5,33.2,30.6,95,89,80,29.92,29.68,3,0,4,0.00
2012-11-8,55.2,40.3,9.0,38.1,32.3,-36.3,95,75,10,29.92,29.78,8,2,11,0.00
2012-11-9,51.4,40.9,29.3,41.6,35.9,25.7,93,83,65,29.86,29.78,4,1,5,0.00
2012-11-10,70.5,56.4,45.0,54.7,47.5,40.9,88,73,49,29.82,29.49,9,4,12,0.00
2012-11-11,65.1,50.8,29.8,54.4,44.9,23.2,93,81,53,29.73,29.43,10,3,14,0.01
2012-11-12,29.8,26.3,24.1,23.2,13.9,11.4,76,59,51,30.08,29.71,0,0,0,0.00
2012-11-13,45.0,28.0,14.9,22.2,15.0,7.6,78,59,33,30.22,30.07,5,1,7,0.00
2012-11-14,52.5,39.8,30.0,30.8,25.0,18.4,73,56,39,30.20,30.06,7,3,11,0.00
2012-11-15,57.6,40.0,26.4,30.8,26.2,20.6,80,60,33,30.14,30.00,7,2,11,0.00
2012-11-16,52.7,32.9,23.0,35.1,24.8,18.1,85,73,48,30.26,30.14,3,1,5,0.00
2012-11-17,59.0,36.8,25.5,36.7,29.0,20.2,91,75,41,30.24,30.16,6,1,9,0.00
2012-11-18,62.2,43.2,27.1,37.4,29.6,21.8,90,62,29,30.17,30.03,6,2,11,0.00
2012-11-19,50.7,45.7,35.8,39.0,35.4,28.7,81,67,55,30.03,29.85,4,1,5,0.00
2012-11-20,64.8,45.1,29.5,45.1,36.7,25.8,88,74,44,29.94,29.84,4,1,7,0.00
2012-11-21,62.6,45.8,28.2,42.7,37.5,23.5,95,74,48,29.93,29.72,7,3,11,0.00
2012-11-22,68.0,53.1,36.3,45.0,38.8,23.0,70,59,42,29.73,29.44,10,5,20,0.00
2012-11-26,13.5,13.5,13.5,0.4,0.4,0.4,55,55,55,30.14,30.12,0,0,1,0.00
2012-11-27,13.5,13.5,13.5,0.4,0.4,0.4,55,55,55,30.13,29.92,0,0,0,0.00
2012-11-28,13.5,13.5,13.5,0.4,0.4,0.4,55,55,55,30.11,29.94,0,0,0,0.00
2012-11-29,13.5,13.5,13.5,0.4,0.4,0.4,55,55,55,29.95,29.83,0,0,0,0.00
2012-11-30,36.5,18.8,0.0,31.2,8.4,0.4,82,60,55,29.98,26.90,3,0,5,0.00
2012-12-1,52.2,43.3,36.1,49.9,38.6,30.6,93,84,74,29.95,29.60,4,2,7,0.00
2012-12-2,52.0,42.3,29.1,49.7,38.1,25.5,95,85,66,29.84,29.61,6,1,24,0.00
2012-12-3,61.2,50.7,40.5,58.0,47.4,36.4,94,89,74,29.78,29.44,5,2,17,0.00
2012-12-4,57.7,39.7,24.1,36.7,24.1,7.7,87,55,32,30.13,29.72,10,2,16,0.00
2012-12-5,37.6,26.6,14.0,22.2,11.8,4.1,72,54,33,30.21,29.91,7,2,10,0.00
2012-12-6,45.7,38.9,33.4,33.9,28.5,22.2,77,66,59,29.91,29.61,6,3,11,0.00
2012-12-7,42.4,35.1,-13.0,27.1,22.0,-39.2,73,59,24,29.78,29.70,25,2,25,0.00
2012-12-8,45.7,33.0,26.4,25.7,20.7,17.3,73,61,43,29.89,29.74,4,1,7,0.00
2012-12-9,33.8,32.0,30.4,28.7,26.1,21.4,85,79,70,29.87,29.48,5,1,24,0.00
2012-12-10,41.7,28.5,23.9,29.7,22.1,17.3,86,77,59,29.69,29.48,0,0,0,0.00
2012-12-11,30.7,23.4,17.1,18.3,14.8,9.9,78,69,55,29.83,29.64,0,0,0,0.00
2012-12-12,44.2,32.7,18.9,24.5,20.5,12.0,80,62,42,29.91,29.82,10,3,14,0.00
2012-12-13,47.5,34.3,22.1,22.7,18.5,15.3,75,53,34,29.91,29.79,7,2,10,0.00
2012-12-14,48.9,31.4,18.1,28.0,21.4,10.7,80,67,42,29.96,29.74,4,1,4,0.00
2012-12-15,41.0,37.7,34.9,38.4,33.5,27.8,91,85,75,29.75,28.61,4,2,8,0.01
2012-12-16,41.5,37.3,31.5,39.1,33.1,26.9,93,85,79,29.50,29.30,7,1,7,0.00
2012-12-17,31.1,27.9,25.9,26.8,21.4,18.1,84,76,72,29.54,29.50,4,3,4,0.00
2012-12-18,27.1,26.8,26.4,21.2,21.0,20.8,79,78,78,29.58,29.55,0,0,0,0.00
2012-12-19,35.2,33.4,30.0,26.6,26.0,25.5,84,74,70,29.81,29.66,2,1,2,0.00
2012-12-20,32.0,29.6,26.4,28.6,25.7,18.0,88,85,70,29.64,29.17,11,2,11,0.00
2012-12-21,27.3,18.2,8.8,16.8,5.9,-3.0,69,59,41,29.96,29.46,12,5,12,0.00
2012-12-22,33.8,12.0,-1.5,9.9,-1.3,-12.2,67,56,32,29.96,29.71,5,1,6,0.00
2012-12-23,32.4,12.4,5.9,15.4,1.4,-3.9,69,61,45,29.83,29.70,4,0,6,0.00
2012-12-24,27.7,18.5,9.9,12.9,7.6,0.5,73,62,46,29.92,29.71,4,1,8,0.00
2012-12-25,27.0,11.1,5.4,5.4,-2.1,-5.4,60,55,32,30.13,29.92,5,1,7,0.00
2012-12-26,33.3,16.9,8.8,13.7,4.3,-3.6,68,57,43,30.08,29.90,6,2,9,0.00
2012-12-27,28.6,21.4,15.3,13.9,9.4,5.3,71,60,46,30.00,29.91,5,1,7,0.00
2012-12-28,28.0,23.1,20.7,17.3,15.1,13.0,77,71,63,29.91,29.71,3,1,4,0.00
2012-12-29,27.0,19.2,4.1,15.9,10.3,-5.3,77,68,58,29.95,29.70,6,1,9,0.00
2012-12-30,30.0,15.6,-0.2,15.2,4.0,-11.0,70,60,39,30.04,29.70,6,2,8,0.00
2012-12-31,27.0,16.7,-0.6,18.0,5.3,-11.9,72,60,43,29.98,29.70,6,2,11,0.00
2013-1-1,21.7,3.6,-11.2,1.3,-12.1,-24.1,59,48,24,30.04,29.89,5,1,8,0.00